UAL262 KDEN-EGLL
Flight info
| Callsign | UAL262 |
|---|---|
| Flight time | N/A |
| Altitude | 33000 |
| Route | EMMYS8 ZIRKL DCT HCT DCT DSM DCT OBK J547 FNT/N0491F350 Q824 HOCKE Q905 SIKBO Q907 MIILS N441B ELSIR/M084F360 DCT 50N050W 52N040W 53N030W 53N020W DCT LIMRI DCT XETBO/N0483F370 DCT EVRIN DCT INFEC DCT JETZI DCT AMFUL DCT ORZEB/N0457F230 P2 SIRIC |
| Aircraft | B77W/H-SDE1E2E3FGHIJ2J3J4J5M1RWXY/LB1D1 |
Departure
| Time | 2026-05-08 04:37 |
|---|---|
| Airport | Denver International Airport (KDEN) |
Arrival
| Time | N/A |
|---|---|
| Airport | London Heathrow Airport (EGLL) |
| Time | Latitude | Longitude | Altitude | Speed | Heading |
|---|---|---|---|---|---|
| 2026-05-08 04:17 | 39.85816 | -104.67546 | 5381 ft | 0 kts | 360° |
| 2026-05-08 04:28 | 39.85810 | -104.67546 | 5385 ft | 4 kts | 360° |
| 2026-05-08 04:28 | 39.85783 | -104.67546 | 5381 ft | 4 kts | 360° |
| 2026-05-08 04:29 | 39.85756 | -104.67545 | 5382 ft | 4 kts | 360° |
| 2026-05-08 04:29 | 39.85729 | -104.67545 | 5383 ft | 3 kts | 360° |
| 2026-05-08 04:29 | 39.85726 | -104.67545 | 5383 ft | 0 kts | 360° |
| 2026-05-08 04:31 | 39.85729 | -104.67547 | 5383 ft | 3 kts | 349° |
| 2026-05-08 04:32 | 39.85738 | -104.67575 | 5383 ft | 6 kts | 260° |
| 2026-05-08 04:32 | 39.85678 | -104.67625 | 5382 ft | 12 kts | 206° |
| 2026-05-08 04:32 | 39.85613 | -104.67689 | 5384 ft | 14 kts | 239° |
| 2026-05-08 04:32 | 39.85595 | -104.67871 | 5387 ft | 24 kts | 268° |
| 2026-05-08 04:33 | 39.85595 | -104.68077 | 5386 ft | 19 kts | 270° |
| 2026-05-08 04:33 | 39.85595 | -104.68249 | 5386 ft | 19 kts | 270° |
| 2026-05-08 04:33 | 39.85547 | -104.68392 | 5378 ft | 19 kts | 198° |
| 2026-05-08 04:33 | 39.85415 | -104.68400 | 5380 ft | 19 kts | 181° |
| 2026-05-08 04:34 | 39.85283 | -104.68401 | 5382 ft | 19 kts | 181° |
| 2026-05-08 04:34 | 39.85206 | -104.68511 | 5380 ft | 19 kts | 266° |
| 2026-05-08 04:34 | 39.85202 | -104.68691 | 5372 ft | 21 kts | 269° |
| 2026-05-08 04:34 | 39.85199 | -104.68893 | 5363 ft | 23 kts | 268° |
| 2026-05-08 04:35 | 39.85196 | -104.69116 | 5358 ft | 26 kts | 270° |
| 2026-05-08 04:35 | 39.85200 | -104.69358 | 5347 ft | 28 kts | 272° |
| 2026-05-08 04:35 | 39.85203 | -104.69584 | 5346 ft | 21 kts | 273° |
| 2026-05-08 04:35 | 39.85316 | -104.69658 | 5345 ft | 22 kts | 1° |
| 2026-05-08 04:36 | 39.85653 | -104.69652 | 5345 ft | 79 kts | 1° |
| 2026-05-08 04:36 | 39.86415 | -104.69645 | 5339 ft | 138 kts | 1° |
| 2026-05-08 04:36 | 39.87542 | -104.69632 | 5341 ft | 185 kts | 0° |
| 2026-05-08 04:36 | 39.88925 | -104.69631 | 5518 ft | 200 kts | 2° |
| 2026-05-08 04:37 | 39.90325 | -104.69617 | 5969 ft | 201 kts | 1° |
| 2026-05-08 04:37 | 39.91691 | -104.69253 | 6134 ft | 213 kts | 33° |
| 2026-05-08 04:37 | 39.92785 | -104.67793 | 6012 ft | 238 kts | 62° |
| 2026-05-08 04:37 | 39.93421 | -104.65848 | 6673 ft | 233 kts | 68° |
| 2026-05-08 04:38 | 39.93986 | -104.63815 | 6951 ft | 244 kts | 76° |
| 2026-05-08 04:38 | 39.94210 | -104.61538 | 7139 ft | 261 kts | 85° |
| 2026-05-08 04:38 | 39.94344 | -104.59106 | 7443 ft | 273 kts | 85° |
| 2026-05-08 04:38 | 39.94473 | -104.56598 | 7876 ft | 282 kts | 85° |
| 2026-05-08 04:39 | 39.94618 | -104.53998 | 8240 ft | 293 kts | 84° |
| 2026-05-08 04:39 | 39.94791 | -104.51311 | 8708 ft | 300 kts | 84° |
| 2026-05-08 04:39 | 39.94977 | -104.48586 | 9329 ft | 302 kts | 83° |
| 2026-05-08 04:39 | 39.95168 | -104.45850 | 9954 ft | 304 kts | 83° |
| 2026-05-08 04:40 | 39.95361 | -104.43112 | 10358 ft | 315 kts | 83° |
| 2026-05-08 04:40 | 39.95573 | -104.40138 | 10489 ft | 335 kts | 83° |
| 2026-05-08 04:40 | 39.95793 | -104.37056 | 10641 ft | 355 kts | 83° |
| 2026-05-08 04:40 | 39.96028 | -104.33760 | 10785 ft | 375 kts | 83° |
| 2026-05-08 04:41 | 39.96272 | -104.30305 | 11079 ft | 388 kts | 83° |
| 2026-05-08 04:41 | 39.96520 | -104.26763 | 11589 ft | 396 kts | 83° |
| 2026-05-08 04:41 | 39.96771 | -104.23171 | 12163 ft | 401 kts | 83° |
| 2026-05-08 04:41 | 39.97023 | -104.19534 | 12789 ft | 405 kts | 83° |
| 2026-05-08 04:42 | 39.97277 | -104.15858 | 13397 ft | 410 kts | 83° |
| 2026-05-08 04:42 | 39.97534 | -104.12133 | 14014 ft | 414 kts | 83° |
| 2026-05-08 04:42 | 39.97792 | -104.08380 | 14607 ft | 418 kts | 83° |
| 2026-05-08 04:42 | 39.98051 | -104.04592 | 15193 ft | 422 kts | 83° |
| 2026-05-08 04:43 | 39.98311 | -104.00770 | 15795 ft | 425 kts | 83° |
| 2026-05-08 04:43 | 39.98573 | -103.96913 | 16381 ft | 429 kts | 83° |
| 2026-05-08 04:43 | 39.98836 | -103.93012 | 16974 ft | 434 kts | 83° |
| 2026-05-08 04:43 | 39.99101 | -103.89073 | 17560 ft | 438 kts | 83° |
| 2026-05-08 04:44 | 39.99366 | -103.85095 | 18150 ft | 442 kts | 83° |
| 2026-05-08 04:44 | 39.99632 | -103.81086 | 18690 ft | 445 kts | 83° |
| 2026-05-08 04:44 | 39.99899 | -103.77045 | 19231 ft | 449 kts | 83° |
| 2026-05-08 04:44 | 40.00166 | -103.72968 | 19764 ft | 452 kts | 83° |
| 2026-05-08 04:45 | 40.00435 | -103.68862 | 20286 ft | 456 kts | 83° |
| 2026-05-08 04:45 | 40.00700 | -103.64778 | 20804 ft | 460 kts | 83° |
| 2026-05-08 04:45 | 40.00970 | -103.60597 | 21319 ft | 464 kts | 83° |
| 2026-05-08 04:45 | 40.01241 | -103.56390 | 21830 ft | 467 kts | 83° |
| 2026-05-08 04:46 | 40.01512 | -103.52143 | 22337 ft | 471 kts | 83° |
| 2026-05-08 04:46 | 40.01784 | -103.47864 | 22862 ft | 475 kts | 83° |
| 2026-05-08 04:46 | 40.02056 | -103.43555 | 23383 ft | 478 kts | 84° |
| 2026-05-08 04:46 | 40.02328 | -103.39216 | 23809 ft | 481 kts | 84° |
| 2026-05-08 04:47 | 40.02600 | -103.34849 | 24213 ft | 485 kts | 84° |
| 2026-05-08 04:47 | 40.02874 | -103.30441 | 24614 ft | 489 kts | 84° |
| 2026-05-08 04:47 | 40.03147 | -103.26003 | 25013 ft | 492 kts | 84° |
| 2026-05-08 04:47 | 40.03421 | -103.21539 | 25418 ft | 495 kts | 84° |
| 2026-05-08 04:48 | 40.03694 | -103.17040 | 25795 ft | 499 kts | 84° |
| 2026-05-08 04:48 | 40.03965 | -103.12563 | 26188 ft | 502 kts | 84° |
| 2026-05-08 04:48 | 40.04240 | -103.07984 | 26510 ft | 507 kts | 84° |
| 2026-05-08 04:48 | 40.04515 | -103.03373 | 26861 ft | 511 kts | 84° |
| 2026-05-08 04:49 | 40.04790 | -102.98734 | 27241 ft | 514 kts | 84° |
| 2026-05-08 04:49 | 40.05064 | -102.94074 | 27637 ft | 516 kts | 84° |
| 2026-05-08 04:49 | 40.05339 | -102.89380 | 27996 ft | 520 kts | 84° |
| 2026-05-08 04:49 | 40.05612 | -102.84663 | 28331 ft | 523 kts | 84° |
| 2026-05-08 04:50 | 40.05886 | -102.79913 | 28652 ft | 526 kts | 84° |
| 2026-05-08 04:50 | 40.06160 | -102.75135 | 28962 ft | 530 kts | 84° |
| 2026-05-08 04:50 | 40.06434 | -102.70313 | 29190 ft | 534 kts | 84° |
| 2026-05-08 04:50 | 40.06707 | -102.65460 | 29477 ft | 537 kts | 84° |
| 2026-05-08 04:51 | 40.06977 | -102.60637 | 29780 ft | 539 kts | 84° |
| 2026-05-08 04:51 | 40.07248 | -102.55750 | 30149 ft | 539 kts | 84° |
| 2026-05-08 04:51 | 40.07516 | -102.50873 | 30542 ft | 537 kts | 84° |
| 2026-05-08 04:51 | 40.07781 | -102.46015 | 30959 ft | 535 kts | 84° |
| 2026-05-08 04:52 | 40.08042 | -102.41185 | 31382 ft | 533 kts | 84° |
| 2026-05-08 04:52 | 40.08302 | -102.36360 | 31797 ft | 531 kts | 84° |
| 2026-05-08 04:52 | 40.08559 | -102.31547 | 32152 ft | 530 kts | 84° |
| 2026-05-08 04:52 | 40.08814 | -102.26748 | 32496 ft | 530 kts | 84° |
| 2026-05-08 04:53 | 40.09066 | -102.21947 | 32819 ft | 529 kts | 84° |
| 2026-05-08 04:53 | 40.09319 | -102.17125 | 32886 ft | 533 kts | 84° |
| 2026-05-08 04:53 | 40.09813 | -102.07536 | 32904 ft | 531 kts | 84° |
| 2026-05-08 04:54 | 40.10298 | -101.97959 | 32908 ft | 526 kts | 84° |
| 2026-05-08 04:54 | 40.10773 | -101.88434 | 32909 ft | 524 kts | 84° |
| 2026-05-08 04:55 | 40.11240 | -101.78932 | 32909 ft | 524 kts | 84° |
| 2026-05-08 04:55 | 40.11700 | -101.69408 | 32908 ft | 525 kts | 84° |
| 2026-05-08 04:56 | 40.12152 | -101.59869 | 32900 ft | 527 kts | 84° |
| 2026-05-08 04:56 | 40.12599 | -101.50307 | 32896 ft | 528 kts | 84° |
| 2026-05-08 04:57 | 40.13365 | -101.40870 | 32884 ft | 522 kts | 71° |
| 2026-05-08 04:57 | 40.14645 | -101.36471 | 32902 ft | 516 kts | 59° |
| 2026-05-08 04:57 | 40.16479 | -101.32468 | 32894 ft | 510 kts | 49° |
| 2026-05-08 04:58 | 40.21261 | -101.25769 | 32901 ft | 504 kts | 40° |
| 2026-05-08 04:58 | 40.26168 | -101.19166 | 32902 ft | 508 kts | 41° |
| 2026-05-08 04:59 | 40.31046 | -101.12424 | 32903 ft | 510 kts | 41° |
| 2026-05-08 04:59 | 40.35914 | -101.05639 | 32895 ft | 511 kts | 42° |
| 2026-05-08 05:00 | 40.40790 | -100.98846 | 32898 ft | 511 kts | 41° |
| 2026-05-08 05:00 | 40.44949 | -100.91246 | 32894 ft | 520 kts | 59° |
| 2026-05-08 05:01 | 40.47305 | -100.82238 | 32891 ft | 525 kts | 75° |
| 2026-05-08 05:01 | 40.48778 | -100.72894 | 32883 ft | 525 kts | 76° |
| 2026-05-08 05:02 | 40.50256 | -100.63498 | 32890 ft | 525 kts | 75° |
| 2026-05-08 05:02 | 40.51783 | -100.54122 | 32900 ft | 525 kts | 75° |
| 2026-05-08 05:03 | 40.53337 | -100.44722 | 32886 ft | 526 kts | 75° |
| 2026-05-08 05:03 | 40.54889 | -100.35304 | 32879 ft | 527 kts | 75° |